sensor_id;sensor_type;location;lat;lon;timestamp;pressure;altitude;pressure_sealevel;temperature;humidity
52935;BME280;38802;50.198;19.796;2023-02-28T00:01:06;97259.98;;;-1.52;67.38
52935;BME280;38802;50.198;19.796;2023-02-28T00:03:32;97265.24;;;-1.51;67.10
52935;BME280;38802;50.198;19.796;2023-02-28T00:06:03;97265.22;;;-1.50;67.42
52935;BME280;38802;50.198;19.796;2023-02-28T00:08:30;97269.30;;;-1.49;66.96
52935;BME280;38802;50.198;19.796;2023-02-28T00:11:01;97268.65;;;-1.51;67.02
52935;BME280;38802;50.198;19.796;2023-02-28T00:13:29;97273.19;;;-1.48;66.99
52935;BME280;38802;50.198;19.796;2023-02-28T00:16:04;97267.18;;;-1.45;67.29
52935;BME280;38802;50.198;19.796;2023-02-28T00:18:31;97275.92;;;-1.39;67.26
52935;BME280;38802;50.198;19.796;2023-02-28T00:20:58;97272.45;;;-1.36;67.24
52935;BME280;38802;50.198;19.796;2023-02-28T00:23:26;97276.77;;;-1.38;66.96
52935;BME280;38802;50.198;19.796;2023-02-28T00:25:53;97274.61;;;-1.41;67.02
52935;BME280;38802;50.198;19.796;2023-02-28T00:28:21;97273.73;;;-1.50;66.93
52935;BME280;38802;50.198;19.796;2023-02-28T00:30:48;97273.10;;;-1.52;66.96
52935;BME280;38802;50.198;19.796;2023-02-28T00:33:15;97271.49;;;-1.58;67.18
52935;BME280;38802;50.198;19.796;2023-02-28T00:35:42;97273.48;;;-1.64;67.27
52935;BME280;38802;50.198;19.796;2023-02-28T00:38:15;97274.67;;;-1.64;67.26
52935;BME280;38802;50.198;19.796;2023-02-28T00:40:42;97273.95;;;-1.62;67.59
52935;BME280;38802;50.198;19.796;2023-02-28T00:43:10;97266.89;;;-1.57;67.36
52935;BME280;38802;50.198;19.796;2023-02-28T00:45:37;97268.88;;;-1.53;67.31
52935;BME280;38802;50.198;19.796;2023-02-28T00:48:04;97270.52;;;-1.60;66.73
52935;BME280;38802;50.198;19.796;2023-02-28T00:50:31;97269.64;;;-1.68;67.04
52935;BME280;38802;50.198;19.796;2023-02-28T00:52:57;97272.62;;;-1.74;67.65
52935;BME280;38802;50.198;19.796;2023-02-28T00:55:24;97272.64;;;-1.75;67.60
52935;BME280;38802;50.198;19.796;2023-02-28T00:57:51;97277.58;;;-1.75;67.44
52935;BME280;38802;50.198;19.796;2023-02-28T01:00:18;97277.45;;;-1.78;67.45
52935;BME280;38802;50.198;19.796;2023-02-28T01:02:44;97278.66;;;-1.79;67.63
52935;BME280;38802;50.198;19.796;2023-02-28T01:05:11;97276.39;;;-1.76;67.73
52935;BME280;38802;50.198;19.796;2023-02-28T01:07:38;97276.29;;;-1.68;67.51
52935;BME280;38802;50.198;19.796;2023-02-28T01:10:05;97275.16;;;-1.62;67.80
52935;BME280;38802;50.198;19.796;2023-02-28T01:12:32;97275.22;;;-1.56;67.94
52935;BME280;38802;50.198;19.796;2023-02-28T01:14:59;97273.69;;;-1.56;67.68
52935;BME280;38802;50.198;19.796;2023-02-28T01:17:25;97275.88;;;-1.55;67.84
52935;BME280;38802;50.198;19.796;2023-02-28T01:19:54;97275.18;;;-1.54;67.93
52935;BME280;38802;50.198;19.796;2023-02-28T01:22:24;97274.78;;;-1.60;67.82
52935;BME280;38802;50.198;19.796;2023-02-28T01:24:51;97273.77;;;-1.61;67.68
52935;BME280;38802;50.198;19.796;2023-02-28T01:27:17;97274.10;;;-1.60;68.04
52935;BME280;38802;50.198;19.796;2023-02-28T01:29:44;97273.90;;;-1.59;68.06
52935;BME280;38802;50.198;19.796;2023-02-28T01:32:12;97273.64;;;-1.53;68.05
52935;BME280;38802;50.198;19.796;2023-02-28T01:34:38;97267.80;;;-1.51;68.19
52935;BME280;38802;50.198;19.796;2023-02-28T01:37:05;97261.55;;;-1.45;68.12
52935;BME280;38802;50.198;19.796;2023-02-28T01:39:32;97259.67;;;-1.45;68.03
52935;BME280;38802;50.198;19.796;2023-02-28T01:41:59;97267.81;;;-1.52;67.76
52935;BME280;38802;50.198;19.796;2023-02-28T01:47:33;97275.02;;;-1.54;68.26
52935;BME280;38802;50.198;19.796;2023-02-28T01:50:05;97275.57;;;-1.57;67.88
52935;BME280;38802;50.198;19.796;2023-02-28T01:52:32;97273.17;;;-1.56;68.20
52935;BME280;38802;50.198;19.796;2023-02-28T01:55:02;97281.02;;;-1.56;68.29
52935;BME280;38802;50.198;19.796;2023-02-28T01:57:35;97279.35;;;-1.58;68.00
52935;BME280;38802;50.198;19.796;2023-02-28T02:00:15;97279.09;;;-1.53;68.34
52935;BME280;38802;50.198;19.796;2023-02-28T02:02:51;97278.23;;;-1.53;68.18
52935;BME280;38802;50.198;19.796;2023-02-28T02:05:25;97274.02;;;-1.56;68.88
52935;BME280;38802;50.198;19.796;2023-02-28T02:07:56;97277.63;;;-1.58;68.49
52935;BME280;38802;50.198;19.796;2023-02-28T02:10:35;97271.86;;;-1.59;68.75
52935;BME280;38802;50.198;19.796;2023-02-28T02:13:08;97272.82;;;-1.65;68.78
52935;BME280;38802;50.198;19.796;2023-02-28T02:18:42;97263.03;;;-1.70;68.78
52935;BME280;38802;50.198;19.796;2023-02-28T02:21:44;97256.09;;;-1.73;69.07
52935;BME280;38802;50.198;19.796;2023-02-28T02:35:19;97258.89;;;-1.87;68.92
52935;BME280;38802;50.198;19.796;2023-02-28T02:38:09;97258.56;;;-1.88;69.00
52935;BME280;38802;50.198;19.796;2023-02-28T02:40:43;97257.45;;;-1.93;69.31
52935;BME280;38802;50.198;19.796;2023-02-28T02:43:20;97252.40;;;-1.97;69.10
52935;BME280;38802;50.198;19.796;2023-02-28T02:45:55;97251.52;;;-2.05;69.00
52935;BME280;38802;50.198;19.796;2023-02-28T02:48:29;97252.52;;;-2.14;68.86
52935;BME280;38802;50.198;19.796;2023-02-28T02:51:00;97250.88;;;-2.20;68.87
52935;BME280;38802;50.198;19.796;2023-02-28T02:53:32;97252.25;;;-2.31;68.84
52935;BME280;38802;50.198;19.796;2023-02-28T02:56:02;97253.53;;;-2.36;69.44
52935;BME280;38802;50.198;19.796;2023-02-28T02:58:34;97249.66;;;-2.39;69.11
52935;BME280;38802;50.198;19.796;2023-02-28T03:01:03;97250.34;;;-2.39;69.14
52935;BME280;38802;50.198;19.796;2023-02-28T03:03:32;97248.60;;;-2.36;69.38
52935;BME280;38802;50.198;19.796;2023-02-28T03:06:00;97251.27;;;-2.34;69.19
52935;BME280;38802;50.198;19.796;2023-02-28T03:08:29;97251.77;;;-2.33;68.83
52935;BME280;38802;50.198;19.796;2023-02-28T03:11:01;97249.02;;;-2.31;69.07
52935;BME280;38802;50.198;19.796;2023-02-28T03:16:33;97251.40;;;-2.31;68.66
52935;BME280;38802;50.198;19.796;2023-02-28T03:27:33;97251.16;;;-2.37;68.95
52935;BME280;38802;50.198;19.796;2023-02-28T03:30:10;97251.53;;;-2.39;68.88
52935;BME280;38802;50.198;19.796;2023-02-28T03:35:14;97260.06;;;-2.41;68.88
52935;BME280;38802;50.198;19.796;2023-02-28T03:37:53;97261.80;;;-2.43;68.75
52935;BME280;38802;50.198;19.796;2023-02-28T03:40:23;97267.19;;;-2.50;68.76
52935;BME280;38802;50.198;19.796;2023-02-28T03:42:57;97268.62;;;-2.55;68.76
52935;BME280;38802;50.198;19.796;2023-02-28T03:45:28;97270.71;;;-2.59;68.88
52935;BME280;38802;50.198;19.796;2023-02-28T03:48:25;97272.27;;;-2.63;68.86
52935;BME280;38802;50.198;19.796;2023-02-28T03:51:14;97272.05;;;-2.71;68.91
52935;BME280;38802;50.198;19.796;2023-02-28T03:53:56;97271.80;;;-2.78;69.07
52935;BME280;38802;50.198;19.796;2023-02-28T03:56:31;97269.13;;;-2.81;69.24
52935;BME280;38802;50.198;19.796;2023-02-28T03:59:16;97272.71;;;-2.82;69.26
52935;BME280;38802;50.198;19.796;2023-02-28T04:01:50;97266.95;;;-2.84;69.41
52935;BME280;38802;50.198;19.796;2023-02-28T04:04:17;97272.80;;;-2.89;69.27
52935;BME280;38802;50.198;19.796;2023-02-28T04:06:45;97273.16;;;-2.91;69.42
52935;BME280;38802;50.198;19.796;2023-02-28T04:09:14;97274.16;;;-2.89;69.59
52935;BME280;38802;50.198;19.796;2023-02-28T04:11:45;97272.09;;;-2.87;69.91
52935;BME280;38802;50.198;19.796;2023-02-28T04:14:15;97272.65;;;-2.91;69.65
52935;BME280;38802;50.198;19.796;2023-02-28T04:16:42;97275.75;;;-2.93;69.58
52935;BME280;38802;50.198;19.796;2023-02-28T04:19:10;97272.42;;;-2.99;69.59
52935;BME280;38802;50.198;19.796;2023-02-28T04:21:40;97272.11;;;-3.04;69.77
52935;BME280;38802;50.198;19.796;2023-02-28T04:24:10;97279.46;;;-3.07;70.18
52935;BME280;38802;50.198;19.796;2023-02-28T04:26:42;97279.83;;;-3.09;70.09
52935;BME280;38802;50.198;19.796;2023-02-28T04:29:14;97283.99;;;-3.17;70.15
52935;BME280;38802;50.198;19.796;2023-02-28T04:31:44;97285.70;;;-3.17;70.29
52935;BME280;38802;50.198;19.796;2023-02-28T04:34:11;97290.64;;;-3.17;70.19
52935;BME280;38802;50.198;19.796;2023-02-28T04:36:38;97287.45;;;-3.20;70.22
52935;BME280;38802;50.198;19.796;2023-02-28T04:39:04;97292.91;;;-3.22;70.69
52935;BME280;38802;50.198;19.796;2023-02-28T04:41:32;97290.38;;;-3.25;70.39
52935;BME280;38802;50.198;19.796;2023-02-28T04:43:59;97294.67;;;-3.28;70.76
52935;BME280;38802;50.198;19.796;2023-02-28T04:46:26;97293.36;;;-3.33;70.66
52935;BME280;38802;50.198;19.796;2023-02-28T04:48:53;97294.62;;;-3.39;70.40
52935;BME280;38802;50.198;19.796;2023-02-28T04:51:20;97295.80;;;-3.38;70.97
52935;BME280;38802;50.198;19.796;2023-02-28T04:53:47;97295.14;;;-3.40;70.93
52935;BME280;38802;50.198;19.796;2023-02-28T04:56:16;97295.53;;;-3.44;70.76
52935;BME280;38802;50.198;19.796;2023-02-28T04:58:44;97299.11;;;-3.45;70.84
52935;BME280;38802;50.198;19.796;2023-02-28T05:01:26;97301.46;;;-3.43;71.16
52935;BME280;38802;50.198;19.796;2023-02-28T05:03:55;97300.25;;;-3.41;70.98
52935;BME280;38802;50.198;19.796;2023-02-28T05:06:24;97304.19;;;-3.44;71.05
52935;BME280;38802;50.198;19.796;2023-02-28T05:08:52;97304.70;;;-3.47;71.00
52935;BME280;38802;50.198;19.796;2023-02-28T05:11:21;97308.11;;;-3.45;71.26
52935;BME280;38802;50.198;19.796;2023-02-28T05:13:50;97306.56;;;-3.43;71.42
52935;BME280;38802;50.198;19.796;2023-02-28T05:16:18;97307.73;;;-3.41;71.09
52935;BME280;38802;50.198;19.796;2023-02-28T05:18:45;97309.80;;;-3.44;71.24
52935;BME280;38802;50.198;19.796;2023-02-28T05:21:27;97309.65;;;-3.48;71.32
52935;BME280;38802;50.198;19.796;2023-02-28T05:23:57;97315.61;;;-3.51;71.38
52935;BME280;38802;50.198;19.796;2023-02-28T05:26:25;97317.67;;;-3.54;71.49
52935;BME280;38802;50.198;19.796;2023-02-28T05:28:52;97321.61;;;-3.57;71.28
52935;BME280;38802;50.198;19.796;2023-02-28T05:31:18;97326.09;;;-3.63;71.67
52935;BME280;38802;50.198;19.796;2023-02-28T05:33:45;97330.06;;;-3.70;71.30
52935;BME280;38802;50.198;19.796;2023-02-28T05:36:12;97331.27;;;-3.70;71.63
52935;BME280;38802;50.198;19.796;2023-02-28T05:38:39;97327.37;;;-3.72;71.77
52935;BME280;38802;50.198;19.796;2023-02-28T05:41:10;97329.92;;;-3.72;71.60
52935;BME280;38802;50.198;19.796;2023-02-28T05:43:37;97334.86;;;-3.75;71.70
52935;BME280;38802;50.198;19.796;2023-02-28T05:46:06;97333.70;;;-3.77;72.19
52935;BME280;38802;50.198;19.796;2023-02-28T05:48:35;97332.54;;;-3.81;71.94
52935;BME280;38802;50.198;19.796;2023-02-28T05:51:03;97339.85;;;-3.82;71.67
52935;BME280;38802;50.198;19.796;2023-02-28T05:53:30;97342.89;;;-3.80;72.01
52935;BME280;38802;50.198;19.796;2023-02-28T05:55:57;97345.73;;;-3.76;72.49
52935;BME280;38802;50.198;19.796;2023-02-28T05:58:24;97345.90;;;-3.74;72.34
52935;BME280;38802;50.198;19.796;2023-02-28T06:00:57;97344.36;;;-3.72;72.18
52935;BME280;38802;50.198;19.796;2023-02-28T06:03:26;97347.73;;;-3.70;72.03
52935;BME280;38802;50.198;19.796;2023-02-28T06:05:53;97350.25;;;-3.68;72.28
52935;BME280;38802;50.198;19.796;2023-02-28T06:08:20;97353.80;;;-3.65;72.60
52935;BME280;38802;50.198;19.796;2023-02-28T06:10:47;97355.84;;;-3.65;72.35
52935;BME280;38802;50.198;19.796;2023-02-28T06:13:14;97353.98;;;-3.68;72.35
52935;BME280;38802;50.198;19.796;2023-02-28T06:15:41;97360.77;;;-3.67;72.21
52935;BME280;38802;50.198;19.796;2023-02-28T06:18:07;97363.14;;;-3.66;72.92
52935;BME280;38802;50.198;19.796;2023-02-28T06:20:34;97366.70;;;-3.63;72.61
52935;BME280;38802;50.198;19.796;2023-02-28T06:23:02;97363.77;;;-3.61;73.03
52935;BME280;38802;50.198;19.796;2023-02-28T06:25:29;97362.59;;;-3.61;72.68
52935;BME280;38802;50.198;19.796;2023-02-28T06:27:56;97363.44;;;-3.61;72.67
52935;BME280;38802;50.198;19.796;2023-02-28T06:30:23;97368.65;;;-3.56;72.78
52935;BME280;38802;50.198;19.796;2023-02-28T06:32:53;97369.48;;;-3.52;73.05
52935;BME280;38802;50.198;19.796;2023-02-28T06:35:22;97365.53;;;-3.49;73.32
52935;BME280;38802;50.198;19.796;2023-02-28T06:37:49;97364.50;;;-3.43;73.27
52935;BME280;38802;50.198;19.796;2023-02-28T06:40:15;97365.98;;;-3.39;73.07
52935;BME280;38802;50.198;19.796;2023-02-28T06:42:42;97367.84;;;-3.38;73.57
52935;BME280;38802;50.198;19.796;2023-02-28T06:45:10;97369.02;;;-3.37;73.48
52935;BME280;38802;50.198;19.796;2023-02-28T06:47:38;97371.39;;;-3.36;73.42
52935;BME280;38802;50.198;19.796;2023-02-28T06:50:07;97371.38;;;-3.35;73.74
52935;BME280;38802;50.198;19.796;2023-02-28T06:52:34;97371.54;;;-3.34;73.78
52935;BME280;38802;50.198;19.796;2023-02-28T06:55:05;97374.23;;;-3.31;73.73
52935;BME280;38802;50.198;19.796;2023-02-28T06:57:33;97376.60;;;-3.31;74.14
52935;BME280;38802;50.198;19.796;2023-02-28T07:00:04;97374.21;;;-3.30;73.92
52935;BME280;38802;50.198;19.796;2023-02-28T07:02:31;97375.70;;;-3.26;74.13
52935;BME280;38802;50.198;19.796;2023-02-28T07:04:58;97377.73;;;-3.24;74.00
52935;BME280;38802;50.198;19.796;2023-02-28T07:07:25;97381.10;;;-3.22;74.28
52935;BME280;38802;50.198;19.796;2023-02-28T07:09:52;97384.63;;;-3.19;74.32
52935;BME280;38802;50.198;19.796;2023-02-28T07:12:18;97388.16;;;-3.13;74.12
52935;BME280;38802;50.198;19.796;2023-02-28T07:14:45;97388.95;;;-3.09;74.48
52935;BME280;38802;50.198;19.796;2023-02-28T07:17:12;97391.00;;;-3.09;74.32
52935;BME280;38802;50.198;19.796;2023-02-28T07:19:39;97393.70;;;-3.08;74.02
52935;BME280;38802;50.198;19.796;2023-02-28T07:22:07;97391.98;;;-3.06;74.47
52935;BME280;38802;50.198;19.796;2023-02-28T07:24:33;97388.94;;;-3.07;74.43
52935;BME280;38802;50.198;19.796;2023-02-28T07:27:00;97386.23;;;-3.08;74.35
52935;BME280;38802;50.198;19.796;2023-02-28T07:29:27;97387.56;;;-3.06;74.32
52935;BME280;38802;50.198;19.796;2023-02-28T07:31:55;97390.98;;;-3.07;74.24
52935;BME280;38802;50.198;19.796;2023-02-28T07:34:22;97392.19;;;-3.09;74.49
52935;BME280;38802;50.198;19.796;2023-02-28T07:36:52;97391.84;;;-3.08;74.52
52935;BME280;38802;50.198;19.796;2023-02-28T07:39:21;97396.44;;;-3.09;75.12
52935;BME280;38802;50.198;19.796;2023-02-28T07:41:48;97400.05;;;-3.13;74.92
52935;BME280;38802;50.198;19.796;2023-02-28T07:44:14;97393.40;;;-3.10;74.88
52935;BME280;38802;50.198;19.796;2023-02-28T07:46:41;97398.77;;;-3.04;74.81
52935;BME280;38802;50.198;19.796;2023-02-28T07:49:08;97402.85;;;-3.02;74.76
52935;BME280;38802;50.198;19.796;2023-02-28T07:51:35;97399.24;;;-2.99;75.11
52935;BME280;38802;50.198;19.796;2023-02-28T07:54:02;97397.69;;;-2.96;75.00
52935;BME280;38802;50.198;19.796;2023-02-28T07:56:29;97397.63;;;-2.91;74.96
52935;BME280;38802;50.198;19.796;2023-02-28T07:58:56;97396.74;;;-2.88;74.86
52935;BME280;38802;50.198;19.796;2023-02-28T08:01:23;97396.03;;;-2.86;74.97
52935;BME280;38802;50.198;19.796;2023-02-28T08:03:50;97400.29;;;-2.85;75.22
52935;BME280;38802;50.198;19.796;2023-02-28T08:06:19;97399.94;;;-2.84;75.04
52935;BME280;38802;50.198;19.796;2023-02-28T08:08:48;97396.02;;;-2.85;75.26
52935;BME280;38802;50.198;19.796;2023-02-28T08:11:16;97396.50;;;-2.82;75.04
52935;BME280;38802;50.198;19.796;2023-02-28T08:13:44;97399.46;;;-2.73;75.14
52935;BME280;38802;50.198;19.796;2023-02-28T08:16:12;97399.41;;;-2.68;75.00
52935;BME280;38802;50.198;19.796;2023-02-28T08:18:51;97397.99;;;-2.64;75.07
52935;BME280;38802;50.198;19.796;2023-02-28T08:21:20;97396.45;;;-2.62;75.04
52935;BME280;38802;50.198;19.796;2023-02-28T08:23:48;97397.80;;;-2.61;75.12
52935;BME280;38802;50.198;19.796;2023-02-28T08:26:16;97398.77;;;-2.56;74.89
52935;BME280;38802;50.198;19.796;2023-02-28T08:28:43;97400.32;;;-2.56;75.10
52935;BME280;38802;50.198;19.796;2023-02-28T08:31:12;97398.02;;;-2.49;75.27
52935;BME280;38802;50.198;19.796;2023-02-28T08:33:40;97402.00;;;-2.41;75.17
52935;BME280;38802;50.198;19.796;2023-02-28T08:36:08;97400.88;;;-2.34;75.07
52935;BME280;38802;50.198;19.796;2023-02-28T08:38:36;97400.15;;;-2.30;74.95
52935;BME280;38802;50.198;19.796;2023-02-28T08:41:06;97404.55;;;-2.28;74.56
52935;BME280;38802;50.198;19.796;2023-02-28T08:43:34;97403.20;;;-2.30;74.56
52935;BME280;38802;50.198;19.796;2023-02-28T08:46:01;97402.45;;;-2.24;74.72
52935;BME280;38802;50.198;19.796;2023-02-28T08:48:29;97404.59;;;-2.19;74.53
52935;BME280;38802;50.198;19.796;2023-02-28T08:51:03;97399.59;;;-2.12;74.20
52935;BME280;38802;50.198;19.796;2023-02-28T08:53:38;97400.75;;;-2.10;73.66
52935;BME280;38802;50.198;19.796;2023-02-28T08:56:11;97398.24;;;-2.02;73.96
52935;BME280;38802;50.198;19.796;2023-02-28T08:58:38;97400.38;;;-1.96;73.96
52935;BME280;38802;50.198;19.796;2023-02-28T09:01:16;97399.46;;;-1.93;73.53
52935;BME280;38802;50.198;19.796;2023-02-28T09:03:45;97399.71;;;-1.85;73.15
52935;BME280;38802;50.198;19.796;2023-02-28T09:06:18;97400.33;;;-1.82;72.34
52935;BME280;38802;50.198;19.796;2023-02-28T09:08:45;97404.14;;;-1.85;72.23
52935;BME280;38802;50.198;19.796;2023-02-28T09:11:12;97406.52;;;-1.85;72.10
52935;BME280;38802;50.198;19.796;2023-02-28T09:13:40;97408.69;;;-1.83;72.53
52935;BME280;38802;50.198;19.796;2023-02-28T09:16:09;97406.73;;;-1.78;72.35
52935;BME280;38802;50.198;19.796;2023-02-28T09:18:37;97407.02;;;-1.71;72.54
52935;BME280;38802;50.198;19.796;2023-02-28T09:21:10;97403.21;;;-1.68;72.99
52935;BME280;38802;50.198;19.796;2023-02-28T09:23:43;97405.73;;;-1.65;72.60
52935;BME280;38802;50.198;19.796;2023-02-28T09:26:18;97407.55;;;-1.63;72.46
52935;BME280;38802;50.198;19.796;2023-02-28T09:28:46;97406.80;;;-1.58;72.05
52935;BME280;38802;50.198;19.796;2023-02-28T09:31:15;97407.56;;;-1.53;72.28
52935;BME280;38802;50.198;19.796;2023-02-28T09:33:43;97403.67;;;-1.43;72.32
52935;BME280;38802;50.198;19.796;2023-02-28T09:36:09;97402.33;;;-1.35;72.02
52935;BME280;38802;50.198;19.796;2023-02-28T09:38:36;97403.42;;;-1.18;71.59
52935;BME280;38802;50.198;19.796;2023-02-28T09:41:11;97401.83;;;-1.05;71.37
52935;BME280;38802;50.198;19.796;2023-02-28T09:43:46;97399.08;;;-0.95;70.32
52935;BME280;38802;50.198;19.796;2023-02-28T09:46:29;97397.20;;;-0.84;70.22
52935;BME280;38802;50.198;19.796;2023-02-28T09:49:05;97396.34;;;-0.67;70.95
52935;BME280;38802;50.198;19.796;2023-02-28T09:51:57;97399.05;;;-0.48;70.65
52935;BME280;38802;50.198;19.796;2023-02-28T09:54:28;97406.98;;;-0.34;69.00
52935;BME280;38802;50.198;19.796;2023-02-28T09:59:45;97402.79;;;-0.21;69.83
52935;BME280;38802;50.198;19.796;2023-02-28T10:05:13;97403.73;;;-0.10;68.69
52935;BME280;38802;50.198;19.796;2023-02-28T10:12:58;97405.81;;;-0.35;68.61
52935;BME280;38802;50.198;19.796;2023-02-28T10:15:30;97408.19;;;-0.35;68.40
52935;BME280;38802;50.198;19.796;2023-02-28T10:18:02;97409.45;;;-0.37;68.63
52935;BME280;38802;50.198;19.796;2023-02-28T10:20:39;97408.33;;;-0.42;68.13
52935;BME280;38802;50.198;19.796;2023-02-28T10:23:23;97400.58;;;-0.48;68.45
52935;BME280;38802;50.198;19.796;2023-02-28T10:26:09;97401.24;;;-0.55;68.00
52935;BME280;38802;50.198;19.796;2023-02-28T10:28:38;97395.08;;;-0.55;67.93
52935;BME280;38802;50.198;19.796;2023-02-28T10:31:13;97398.42;;;-0.51;67.48
52935;BME280;38802;50.198;19.796;2023-02-28T10:33:41;97393.39;;;-0.55;66.99
52935;BME280;38802;50.198;19.796;2023-02-28T10:36:13;97386.50;;;-0.52;67.69
52935;BME280;38802;50.198;19.796;2023-02-28T10:38:40;97382.80;;;-0.47;66.49
52935;BME280;38802;50.198;19.796;2023-02-28T10:41:09;97381.05;;;-0.44;67.31
52935;BME280;38802;50.198;19.796;2023-02-28T10:43:38;97383.90;;;-0.41;66.24
52935;BME280;38802;50.198;19.796;2023-02-28T10:48:39;97379.27;;;-0.40;66.53
52935;BME280;38802;50.198;19.796;2023-02-28T10:51:11;97377.91;;;-0.40;66.84
52935;BME280;38802;50.198;19.796;2023-02-28T10:53:48;97375.10;;;-0.37;66.61
52935;BME280;38802;50.198;19.796;2023-02-28T10:56:27;97375.10;;;-0.37;66.18
52935;BME280;38802;50.198;19.796;2023-02-28T10:58:58;97372.61;;;-0.40;66.15
52935;BME280;38802;50.198;19.796;2023-02-28T11:03:58;97368.05;;;-0.42;65.76
52935;BME280;38802;50.198;19.796;2023-02-28T11:06:29;97365.35;;;-0.44;66.33
52935;BME280;38802;50.198;19.796;2023-02-28T11:09:06;97365.38;;;-0.46;66.30
52935;BME280;38802;50.198;19.796;2023-02-28T11:11:45;97363.97;;;-0.44;65.87
52935;BME280;38802;50.198;19.796;2023-02-28T11:14:26;97364.45;;;-0.41;65.99
52935;BME280;38802;50.198;19.796;2023-02-28T11:16:55;97358.67;;;-0.43;66.11
52935;BME280;38802;50.198;19.796;2023-02-28T11:19:30;97357.63;;;-0.42;66.28
52935;BME280;38802;50.198;19.796;2023-02-28T11:22:02;97353.41;;;-0.36;65.84
52935;BME280;38802;50.198;19.796;2023-02-28T11:24:41;97353.48;;;-0.32;65.16
52935;BME280;38802;50.198;19.796;2023-02-28T11:29:58;97347.77;;;-0.28;65.49
52935;BME280;38802;50.198;19.796;2023-02-28T11:32:30;97349.67;;;-0.29;65.30
52935;BME280;38802;50.198;19.796;2023-02-28T11:37:40;97341.49;;;-0.30;65.62
52935;BME280;38802;50.198;19.796;2023-02-28T11:46:38;97332.80;;;-0.23;64.95
52935;BME280;38802;50.198;19.796;2023-02-28T11:52:00;97320.98;;;-0.21;65.47
52935;BME280;38802;50.198;19.796;2023-02-28T12:00:39;97328.86;;;-0.15;64.77
52935;BME280;38802;50.198;19.796;2023-02-28T12:03:26;97329.95;;;-0.18;64.57
52935;BME280;38802;50.198;19.796;2023-02-28T12:06:18;97326.14;;;-0.22;65.39
52935;BME280;38802;50.198;19.796;2023-02-28T12:11:53;97323.66;;;-0.19;65.04
52935;BME280;38802;50.198;19.796;2023-02-28T12:19:59;97320.98;;;-0.14;64.81
52935;BME280;38802;50.198;19.796;2023-02-28T12:22:35;97322.02;;;-0.15;64.92
52935;BME280;38802;50.198;19.796;2023-02-28T12:25:24;97325.59;;;-0.14;65.18
52935;BME280;38802;50.198;19.796;2023-02-28T12:27:56;97324.27;;;-0.09;65.24
52935;BME280;38802;50.198;19.796;2023-02-28T12:30:32;97331.44;;;0.00;65.49
52935;BME280;38802;50.198;19.796;2023-02-28T12:33:10;97334.20;;;0.07;65.20
52935;BME280;38802;50.198;19.796;2023-02-28T12:38:22;97333.91;;;0.11;65.08
52935;BME280;38802;50.198;19.796;2023-02-28T12:43:22;97329.45;;;0.12;65.11
52935;BME280;38802;50.198;19.796;2023-02-28T12:45:56;97325.33;;;0.13;64.96
52935;BME280;38802;50.198;19.796;2023-02-28T12:48:31;97324.00;;;0.11;64.74
52935;BME280;38802;50.198;19.796;2023-02-28T12:51:03;97324.83;;;0.13;64.85
52935;BME280;38802;50.198;19.796;2023-02-28T12:54:00;97320.64;;;0.16;64.98
52935;BME280;38802;50.198;19.796;2023-02-28T12:59:22;97320.02;;;0.21;64.60
52935;BME280;38802;50.198;19.796;2023-02-28T13:07:58;97314.51;;;0.15;64.65
52935;BME280;38802;50.198;19.796;2023-02-28T13:10:45;97319.71;;;0.12;64.15
52935;BME280;38802;50.198;19.796;2023-02-28T13:13:18;97319.20;;;0.05;64.25
52935;BME280;38802;50.198;19.796;2023-02-28T13:15:58;97315.77;;;0.05;64.26
52935;BME280;38802;50.198;19.796;2023-02-28T13:18:39;97317.52;;;0.03;63.81
52935;BME280;38802;50.198;19.796;2023-02-28T13:21:09;97313.52;;;-0.01;64.08
52935;BME280;38802;50.198;19.796;2023-02-28T13:24:03;97313.33;;;-0.00;64.29
52935;BME280;38802;50.198;19.796;2023-02-28T13:34:28;97313.30;;;0.09;65.05
52935;BME280;38802;50.198;19.796;2023-02-28T13:47:43;97303.20;;;0.10;64.87
52935;BME280;38802;50.198;19.796;2023-02-28T13:58:43;97285.35;;;0.13;64.26
52935;BME280;38802;50.198;19.796;2023-02-28T14:06:31;97278.44;;;0.15;64.41
52935;BME280;38802;50.198;19.796;2023-02-28T14:11:39;97280.61;;;0.18;64.29
52935;BME280;38802;50.198;19.796;2023-02-28T14:14:08;97275.58;;;0.14;64.15
52935;BME280;38802;50.198;19.796;2023-02-28T14:16:44;97275.95;;;0.13;64.19
52935;BME280;38802;50.198;19.796;2023-02-28T14:19:19;97273.02;;;0.14;64.27
52935;BME280;38802;50.198;19.796;2023-02-28T14:32:43;97262.68;;;0.17;64.73
52935;BME280;38802;50.198;19.796;2023-02-28T14:38:26;97272.11;;;0.16;64.41
52935;BME280;38802;50.198;19.796;2023-02-28T14:40:57;97268.44;;;0.13;64.42
52935;BME280;38802;50.198;19.796;2023-02-28T14:43:27;97263.88;;;0.11;64.43
52935;BME280;38802;50.198;19.796;2023-02-28T14:45:57;97263.39;;;0.09;64.99
52935;BME280;38802;50.198;19.796;2023-02-28T14:48:25;97261.96;;;0.12;64.31
52935;BME280;38802;50.198;19.796;2023-02-28T14:51:01;97263.34;;;0.11;65.10
52935;BME280;38802;50.198;19.796;2023-02-28T14:53:30;97264.48;;;0.14;64.73
52935;BME280;38802;50.198;19.796;2023-02-28T14:56:01;97260.52;;;0.15;65.06
52935;BME280;38802;50.198;19.796;2023-02-28T14:58:31;97266.38;;;0.13;64.91
52935;BME280;38802;50.198;19.796;2023-02-28T15:01:01;97265.23;;;0.11;64.68
52935;BME280;38802;50.198;19.796;2023-02-28T15:03:33;97265.25;;;0.10;65.20
52935;BME280;38802;50.198;19.796;2023-02-28T15:06:15;97263.38;;;0.10;65.11
52935;BME280;38802;50.198;19.796;2023-02-28T15:08:45;97267.98;;;0.10;64.74
52935;BME280;38802;50.198;19.796;2023-02-28T15:11:17;97265.22;;;0.05;64.69
52935;BME280;38802;50.198;19.796;2023-02-28T15:13:50;97264.27;;;0.02;65.30
52935;BME280;38802;50.198;19.796;2023-02-28T15:16:56;97263.60;;;0.01;65.00
52935;BME280;38802;50.198;19.796;2023-02-28T15:19:27;97260.77;;;0.05;65.20
52935;BME280;38802;50.198;19.796;2023-02-28T15:22:11;97260.61;;;0.05;64.78
52935;BME280;38802;50.198;19.796;2023-02-28T15:24:42;97263.21;;;0.03;65.00
52935;BME280;38802;50.198;19.796;2023-02-28T15:27:16;97260.67;;;0.02;64.80
52935;BME280;38802;50.198;19.796;2023-02-28T15:29:50;97262.91;;;0.02;65.16